createdAt,value
2023-02-24T00:03:00.348Z,6.85
2023-02-24T00:08:06.324Z,7.19
2023-02-24T00:13:12.275Z,6.79
2023-02-24T00:18:16.886Z,6.73
2023-02-24T00:23:23.825Z,6.99
2023-02-24T00:28:29.723Z,6.99
2023-02-24T00:33:34.309Z,6.80
2023-02-24T00:38:46.100Z,7.29
2023-02-24T00:43:51.755Z,6.60
2023-02-24T00:48:56.253Z,6.83
2023-02-24T00:54:02.773Z,6.65
2023-02-24T00:59:07.109Z,6.71
2023-02-24T01:04:12.290Z,6.76
2023-02-24T01:09:20.323Z,6.70
2023-02-24T01:14:27.243Z,6.44
2023-02-24T01:19:34.185Z,6.80
2023-02-24T01:24:42.435Z,6.82
2023-02-24T01:29:47.102Z,6.41
2023-02-24T01:34:53.581Z,6.77
2023-02-24T01:39:59.519Z,7.00
2023-02-24T01:45:12.745Z,6.87
2023-02-24T01:50:21.841Z,7.34
2023-02-24T01:55:32.204Z,6.99
2023-02-24T02:00:45.376Z,6.63
2023-02-24T02:05:49.841Z,6.71
2023-02-24T02:10:59.761Z,7.22
2023-02-24T02:16:30.896Z,7.53
2023-02-24T02:22:02.466Z,7.38
2023-02-24T02:27:58.227Z,6.99
2023-02-24T02:33:38.605Z,6.94
2023-02-24T02:38:54.244Z,7.12
2023-02-24T02:44:09.104Z,6.76
2023-02-24T02:49:22.106Z,6.75
2023-02-24T02:54:34.857Z,6.79
2023-02-24T02:59:49.450Z,7.37
2023-02-24T03:04:58.370Z,7.15
2023-02-24T03:10:17.822Z,7.42
2023-02-24T03:15:24.762Z,6.93
2023-02-24T03:20:33.036Z,7.09
2023-02-24T03:25:44.634Z,6.62
2023-02-24T03:30:58.070Z,6.64
2023-02-24T03:36:02.857Z,6.79
2023-02-24T03:41:12.066Z,7.18
2023-02-24T03:46:18.187Z,6.78
2023-02-24T03:51:24.517Z,6.43
2023-02-24T03:56:46.473Z,6.46
2023-02-24T04:01:58.206Z,6.89
2023-02-24T04:07:16.380Z,6.54
2023-02-24T04:12:29.397Z,6.72
2023-02-24T04:17:43.626Z,7.15
2023-02-24T04:22:51.679Z,6.71
2023-02-24T04:28:00.060Z,6.96
2023-02-24T04:33:05.072Z,7.07
2023-02-24T04:38:09.765Z,6.74
2023-02-24T04:43:16.566Z,7.16
2023-02-24T04:48:20.590Z,6.70
2023-02-24T04:53:27.246Z,6.79
2023-02-24T04:58:33.053Z,6.85
2023-02-24T05:03:37.957Z,6.80
2023-02-24T05:08:42.755Z,7.03
2023-02-24T05:13:48.811Z,7.29
2023-02-24T05:19:13.151Z,7.08
2023-02-24T05:24:17.669Z,7.24
2023-02-24T05:29:23.481Z,7.07
2023-02-24T05:34:30.628Z,7.13
2023-02-24T05:39:35.213Z,6.96
2023-02-24T05:44:41.926Z,7.28
2023-02-24T05:49:48.058Z,6.98
2023-02-24T05:54:53.605Z,6.69
2023-02-24T05:59:59.384Z,6.99
2023-02-24T06:05:04.513Z,7.25
2023-02-24T06:10:11.016Z,7.57
2023-02-24T06:15:17.737Z,6.82
2023-02-24T06:20:22.609Z,7.08
2023-02-24T06:25:29.894Z,6.85
2023-02-24T06:30:35.807Z,6.74
2023-02-24T06:35:45.042Z,6.53
2023-02-24T06:40:52.439Z,6.41
2023-02-24T06:46:13.419Z,6.66
2023-02-24T06:51:18.287Z,6.33
2023-02-24T06:56:23.446Z,6.47
2023-02-24T07:01:30.116Z,6.09
2023-02-24T07:06:38.507Z,5.91
2023-02-24T07:11:46.898Z,6.33
2023-02-24T07:16:54.799Z,6.66
2023-02-24T07:22:03.639Z,6.69
2023-02-24T07:27:10.240Z,6.56
2023-02-24T07:32:18.105Z,6.60
2023-02-24T07:37:24.424Z,7.01
2023-02-24T07:42:35.439Z,6.33
2023-02-24T07:47:44.696Z,6.53
2023-02-24T07:52:49.402Z,6.18
2023-02-24T07:57:54.869Z,6.36
2023-02-24T08:03:00.923Z,6.77
2023-02-24T08:08:06.617Z,6.75
2023-02-24T08:13:12.108Z,7.07
2023-02-24T08:18:20.157Z,6.88
2023-02-24T08:23:25.841Z,7.26
2023-02-24T08:28:30.381Z,7.79
2023-02-24T08:33:37.443Z,7.74
2023-02-24T08:38:42.399Z,7.84
2023-02-24T08:43:48.674Z,7.73
2023-02-24T08:48:56.495Z,7.77
2023-02-24T08:54:02.821Z,7.48
2023-02-24T08:59:07.767Z,7.66
2023-02-24T09:04:19.210Z,7.87
2023-02-24T09:09:23.809Z,7.56
2023-02-24T09:14:30.154Z,7.83
2023-02-24T09:19:57.082Z,7.95
2023-02-24T09:25:21.900Z,8.11
2023-02-24T09:30:38.663Z,7.73
2023-02-24T09:35:46.925Z,7.93
2023-02-24T09:40:52.202Z,7.76
2023-02-24T09:46:14.557Z,7.84
2023-02-24T09:51:29.266Z,7.81
2023-02-24T09:56:42.713Z,7.90
2023-02-24T10:02:02.414Z,7.63
2023-02-24T10:07:16.593Z,7.12
2023-02-24T10:12:25.508Z,7.38
2023-02-24T10:17:40.462Z,7.18
2023-02-24T10:22:54.278Z,7.33
2023-02-24T10:28:07.951Z,7.21
2023-02-24T10:33:25.554Z,7.56
2023-02-24T10:38:34.236Z,8.10
2023-02-24T10:43:45.781Z,7.99
2023-02-24T10:49:00.715Z,7.53
2023-02-24T10:54:34.185Z,8.23
2023-02-24T11:00:20.123Z,8.58
2023-02-24T11:05:38.621Z,7.61
2023-02-24T11:10:58.840Z,7.45
2023-02-24T11:16:20.996Z,7.25
2023-02-24T11:21:28.134Z,7.22
2023-02-24T11:26:38.392Z,7.37
2023-02-24T11:32:12.163Z,7.27
2023-02-24T11:37:30.927Z,7.93
2023-02-24T11:42:45.768Z,8.73
2023-02-24T11:47:57.497Z,8.49
2023-02-24T11:53:06.863Z,8.05
2023-02-24T11:58:19.018Z,7.79
2023-02-24T12:03:32.103Z,8.05
2023-02-24T12:08:40.734Z,8.47
2023-02-24T12:13:53.210Z,7.72
2023-02-24T12:19:04.512Z,7.45
2023-02-24T12:24:13.912Z,8.20
2023-02-24T12:29:48.718Z,8.61
2023-02-24T12:35:07.060Z,8.22
2023-02-24T12:40:26.726Z,8.03
2023-02-24T12:45:44.607Z,7.86
2023-02-24T12:50:55.574Z,7.75
2023-02-24T12:56:11.810Z,8.04
2023-02-24T13:01:26.346Z,7.91
2023-02-24T13:06:41.857Z,7.92
2023-02-24T13:11:53.068Z,8.32
2023-02-24T13:17:20.172Z,7.50
2023-02-24T13:22:28.505Z,8.07
2023-02-24T13:27:36.273Z,8.03
2023-02-24T13:32:46.463Z,7.62
2023-02-24T13:37:51.690Z,7.96
2023-02-24T13:43:01.599Z,8.21
2023-02-24T13:48:33.269Z,8.56
2023-02-24T13:53:58.957Z,9.84
2023-02-24T13:59:29.100Z,9.82
2023-02-24T14:04:39.436Z,10.40
2023-02-24T14:09:47.797Z,10.32
2023-02-24T14:14:53.090Z,10.33
2023-02-24T14:20:10.142Z,9.54
2023-02-24T14:25:15.830Z,10.02
2023-02-24T14:30:27.014Z,9.23
2023-02-24T14:35:36.581Z,10.48
2023-02-24T14:40:49.081Z,10.07
2023-02-24T14:45:54.974Z,8.59
2023-02-24T14:51:02.940Z,8.16
2023-02-24T14:56:08.826Z,7.93
2023-02-24T15:01:20.190Z,7.83
2023-02-24T15:06:28.481Z,7.30
2023-02-24T15:11:37.196Z,7.22
2023-02-24T15:16:44.214Z,7.09
2023-02-24T15:21:50.377Z,7.26
2023-02-24T15:26:56.357Z,7.61
2023-02-24T15:32:02.079Z,8.17
2023-02-24T15:37:18.529Z,8.33
2023-02-24T15:42:28.579Z,7.96
2023-02-24T15:47:43.221Z,7.47
2023-02-24T15:52:49.570Z,7.03
2023-02-24T15:57:58.914Z,6.97
2023-02-24T16:03:03.233Z,6.54
2023-02-24T16:08:13.084Z,6.24
2023-02-24T16:13:20.845Z,6.46
2023-02-24T16:18:27.388Z,6.24
2023-02-24T16:23:38.756Z,6.03
2023-02-24T16:28:43.697Z,5.84
2023-02-24T16:33:54.856Z,6.28
2023-02-24T16:39:01.848Z,6.02
2023-02-24T16:44:06.585Z,5.80
2023-02-24T16:49:14.945Z,5.90
2023-02-24T16:54:22.189Z,5.83
2023-02-24T16:59:27.799Z,5.74
2023-02-24T17:04:32.594Z,5.72
2023-02-24T17:09:38.829Z,5.69
2023-02-24T17:14:42.941Z,6.11
2023-02-24T17:19:47.514Z,5.78
2023-02-24T17:24:56.143Z,6.01
2023-02-24T17:30:00.996Z,6.40
2023-02-24T17:35:05.901Z,6.67
2023-02-24T17:40:13.891Z,6.32
2023-02-24T17:45:18.555Z,6.20
2023-02-24T17:50:23.131Z,6.52
2023-02-24T17:55:29.442Z,6.36
2023-02-24T18:00:34.307Z,6.56
2023-02-24T18:05:39.020Z,6.44
2023-02-24T18:10:45.006Z,6.45
2023-02-24T18:15:49.642Z,6.48
2023-02-24T18:20:58.744Z,6.41
2023-02-24T18:26:06.555Z,6.54
2023-02-24T18:31:15.627Z,6.58
2023-02-24T18:36:21.400Z,6.49
2023-02-24T18:41:27.698Z,6.46
2023-02-24T18:46:32.320Z,6.65
2023-02-24T18:51:37.197Z,6.29
2023-02-24T18:56:43.350Z,6.54
2023-02-24T19:01:48.974Z,6.51
2023-02-24T19:06:53.684Z,6.59
2023-02-24T19:12:00.032Z,6.36
2023-02-24T19:17:04.672Z,6.85
2023-02-24T19:22:09.141Z,7.10
2023-02-24T19:27:15.023Z,6.42
2023-02-24T19:32:19.251Z,6.16
2023-02-24T19:37:23.901Z,6.25
2023-02-24T19:42:29.790Z,5.97
2023-02-24T19:47:34.247Z,5.84
2023-02-24T19:52:38.898Z,6.00
2023-02-24T19:57:44.784Z,6.00
2023-02-24T20:02:48.865Z,6.22
2023-02-24T20:07:53.618Z,6.17
2023-02-24T20:12:59.583Z,6.29
2023-02-24T20:18:07.766Z,6.48
2023-02-24T20:23:12.235Z,6.71
2023-02-24T20:28:21.150Z,7.02
2023-02-24T20:33:26.582Z,6.24
2023-02-24T20:38:31.331Z,6.29
2023-02-24T20:43:37.330Z,6.48
2023-02-24T20:48:43.425Z,6.38
2023-02-24T20:53:57.319Z,6.80
2023-02-24T20:59:07.350Z,6.66
2023-02-24T21:04:14.110Z,6.84
2023-02-24T21:09:18.587Z,6.79
2023-02-24T21:14:24.938Z,7.16
2023-02-24T21:19:30.691Z,7.19
2023-02-24T21:24:35.209Z,7.05
2023-02-24T21:29:41.369Z,6.71
2023-02-24T21:34:46.050Z,6.92
2023-02-24T21:39:50.581Z,7.08
2023-02-24T21:45:02.529Z,6.86
2023-02-24T21:50:08.055Z,7.23
2023-02-24T21:55:12.680Z,7.17
2023-02-24T22:00:20.009Z,7.05
2023-02-24T22:05:27.030Z,7.42
2023-02-24T22:10:31.895Z,7.17
2023-02-24T22:15:40.211Z,7.21
2023-02-24T22:20:44.590Z,7.27
2023-02-24T22:25:49.223Z,7.65
2023-02-24T22:30:58.457Z,7.62
2023-02-24T22:36:03.793Z,7.66
2023-02-24T22:41:10.424Z,7.48
2023-02-24T22:46:19.187Z,8.15
2023-02-24T22:51:24.833Z,8.02
2023-02-24T22:56:30.887Z,7.76
2023-02-24T23:01:37.465Z,7.83
2023-02-24T23:06:41.845Z,7.66
2023-02-24T23:11:47.223Z,7.57
2023-02-24T23:16:55.711Z,8.03
2023-02-24T23:22:00.578Z,7.98
2023-02-24T23:27:06.294Z,7.63
2023-02-24T23:32:12.273Z,7.94
2023-02-24T23:37:16.934Z,7.96
2023-02-24T23:42:21.500Z,8.16
2023-02-24T23:47:27.388Z,8.04
2023-02-24T23:52:31.515Z,7.99
2023-02-24T23:57:36.024Z,8.20
